Time;durP1;ratioP1;P1;durP2;ratioP2;P2;SDS_P1;SDS_P2;PMS_P1;PMS_P2;Temp;Humidity;BMP_temperature;BMP_pressure;BME280_temperature;BME280_humidity;BME280_pressure;Samples;Min_cycle;Max_cycle;Signal;HPM_P1;HPM_P2
2022/06/04 00:02:06;;;;;;;11.38;3.97;;;16.20;88.50;;;;;;4991491;28;20126;-64
2022/06/04 00:04:32;;;;;;;10.20;4.38;;;16.10;88.50;;;;;;4990253;28;20035;-64
2022/06/04 00:06:58;;;;;;;9.40;4.15;;;16.10;88.60;;;;;;4992399;28;20105;-64
2022/06/04 00:09:25;;;;;;;10.32;4.68;;;16.10;88.70;;;;;;4991041;28;20065;-64
2022/06/04 00:17:21;;;;;;;8.18;3.92;;;16.00;88.60;;;;;;4990805;28;20037;-64
2022/06/04 00:19:47;;;;;;;14.88;4.03;;;16.00;88.70;;;;;;4991407;28;20553;-64
2022/06/04 00:22:14;;;;;;;7.15;3.67;;;16.00;88.80;;;;;;4989828;28;20081;-65
2022/06/04 00:24:42;;;;;;;7.78;3.38;;;16.00;88.90;;;;;;4991351;28;20042;-64
2022/06/04 00:27:14;;;;;;;13.02;3.97;;;16.00;89.50;;;;;;4991895;28;20113;-64
2022/06/04 00:29:39;;;;;;;12.77;3.85;;;15.90;89.00;;;;;;4991474;28;20038;-64
2022/06/04 00:32:06;;;;;;;12.27;3.88;;;15.90;89.00;;;;;;4991381;28;20109;-64
2022/06/04 00:34:32;;;;;;;9.88;4.13;;;15.90;89.00;;;;;;4991828;28;20057;-64
2022/06/04 00:36:59;;;;;;;12.25;4.22;;;15.90;89.10;;;;;;4990738;28;20030;-64
2022/06/04 00:39:25;;;;;;;9.93;3.92;;;15.80;89.00;;;;;;4995277;28;20030;-64
2022/06/04 00:42:05;;;;;;;13.43;3.88;;;15.80;89.10;;;;;;4994314;28;20049;-64
2022/06/04 00:44:31;;;;;;;11.25;5.35;;;15.80;89.70;;;;;;4989266;28;20417;-64
2022/06/04 00:47:22;;;;;;;7.28;3.63;;;15.90;89.10;;;;;;4995354;28;20057;-64
2022/06/04 00:49:47;;;;;;;14.32;4.25;;;15.90;89.20;;;;;;4994807;28;20092;-64
2022/06/04 00:52:15;;;;;;;11.05;3.70;;;15.80;89.00;;;;;;4994053;28;20459;-64
2022/06/04 00:54:42;;;;;;;10.70;3.78;;;15.80;89.10;;;;;;4994538;28;20026;-64
2022/06/04 00:57:28;;;;;;;6.80;3.17;;;15.70;89.10;;;;;;4995287;28;20478;-64
2022/06/04 01:00:10;;;;;;;8.35;3.53;;;15.80;89.30;;;;;;4991262;28;20110;-64
2022/06/04 01:02:45;;;;;;;8.70;3.08;;;15.70;89.20;;;;;;4994406;28;20421;-64
2022/06/04 01:05:16;;;;;;;8.15;3.20;;;15.70;89.30;;;;;;4994184;28;20104;-64
2022/06/04 01:08:00;;;;;;;7.65;3.25;;;15.60;89.30;;;;;;4993936;28;20471;-64
2022/06/04 01:10:37;;;;;;;;;;;15.60;89.40;;;;;;4994941;28;20027;-64
2022/06/04 01:13:30;;;;;;;8.27;3.85;;;15.60;89.40;;;;;;4993496;28;19918;-64
2022/06/04 01:16:15;;;;;;;11.63;3.85;;;15.60;89.30;;;;;;4994192;28;20039;-64
2022/06/04 01:19:09;;;;;;;8.80;3.40;;;15.50;89.30;;;;;;4990583;28;20030;-64
2022/06/04 01:22:08;;;;;;;7.53;3.10;;;15.50;89.50;;;;;;4994546;28;20062;-64
2022/06/04 01:25:00;;;;;;;12.88;4.03;;;15.40;89.60;;;;;;4991295;28;20050;-63
2022/06/04 01:27:43;;;;;;;7.15;3.03;;;15.40;89.60;;;;;;4993278;28;20022;-64
2022/06/04 01:30:25;;;;;;;5.57;2.60;;;15.50;89.80;;;;;;4994366;28;20077;-64
2022/06/04 01:33:03;;;;;;;6.40;3.28;;;15.40;89.80;;;;;;4993886;28;20035;-64
2022/06/04 01:35:44;;;;;;;4.95;2.72;;;15.30;89.70;;;;;;4993443;28;20034;-64
2022/06/04 01:38:36;;;;;;;8.77;3.30;;;15.40;89.80;;;;;;4990810;28;20111;-64
2022/06/04 01:41:19;;;;;;;6.75;3.10;;;15.30;89.80;;;;;;4985497;28;20038;-64
2022/06/04 01:44:02;;;;;;;10.18;3.70;;;15.40;89.90;;;;;;4983363;28;20121;-64
2022/06/04 01:46:33;;;;;;;6.05;3.47;;;15.30;89.90;;;;;;4993849;28;20041;-64
2022/06/04 01:49:15;;;;;;;11.65;3.20;;;15.30;90.00;;;;;;4993591;28;20026;-64
2022/06/04 01:51:41;;;;;;;9.27;3.38;;;15.30;90.00;;;;;;4994339;28;20034;-64
2022/06/04 01:54:24;;;;;;;7.25;3.42;;;15.30;90.00;;;;;;4992080;28;20072;-64
2022/06/04 01:56:55;;;;;;;16.20;3.78;;;15.30;90.00;;;;;;4994476;28;20474;-64
2022/06/04 01:59:33;;;;;;;6.80;3.13;;;15.30;90.00;;;;;;4991638;28;20077;-64
2022/06/04 02:02:01;;;;;;;7.05;2.83;;;15.30;90.00;;;;;;4993351;28;20026;-64
2022/06/04 02:04:36;;;;;;;7.90;3.40;;;15.30;90.30;;;;;;4993579;28;20081;-64
2022/06/04 02:09:55;;;;;;;10.73;3.80;;;15.30;90.00;;;;;;4992630;28;20125;-64
2022/06/04 02:12:22;;;;;;;9.93;3.42;;;15.30;90.10;;;;;;4993766;28;20058;-64
2022/06/04 02:14:48;;;;;;;6.30;3.05;;;15.20;90.00;;;;;;4991012;28;20022;-64
2022/06/04 02:17:19;;;;;;;7.82;3.55;;;15.20;90.10;;;;;;4994041;28;20097;-64
2022/06/04 02:19:45;;;;;;;10.30;3.30;;;15.20;90.10;;;;;;4991128;28;20045;-64
2022/06/04 02:22:11;;;;;;;7.75;3.25;;;15.20;90.10;;;;;;4992387;28;20041;-64
2022/06/04 02:24:38;;;;;;;9.57;3.28;;;15.20;90.20;;;;;;4992717;28;20422;-64
2022/06/04 02:27:06;;;;;;;8.50;3.45;;;15.10;90.20;;;;;;4993723;28;20513;-64
2022/06/04 02:29:36;;;;;;;11.40;3.13;;;15.10;90.20;;;;;;4991082;28;20038;-64
2022/06/04 02:32:27;;;;;;;5.57;2.80;;;15.10;90.20;;;;;;4993165;28;20031;-64
2022/06/04 02:35:08;;;;;;;4.20;2.88;;;15.10;90.30;;;;;;4990464;28;20034;-64
2022/06/04 02:37:38;;;;;;;6.28;2.60;;;15.20;90.30;;;;;;4992204;28;20070;-64
2022/06/04 02:40:21;;;;;;;5.07;2.60;;;15.10;90.20;;;;;;4993387;28;20509;-64
2022/06/04 02:42:58;;;;;;;10.05;2.42;;;15.10;90.20;;;;;;4992569;28;20034;-64
2022/06/04 02:45:39;;;;;;;5.53;2.60;;;15.10;90.20;;;;;;4993245;28;20078;-64
2022/06/04 02:48:24;;;;;;;7.65;2.47;;;15.10;90.20;;;;;;4987614;28;20451;-64
2022/06/04 02:51:06;;;;;;;10.35;2.83;;;15.00;90.30;;;;;;4992565;28;20037;-64
2022/06/04 02:53:34;;;;;;;8.13;2.60;;;15.00;90.30;;;;;;4992344;28;20026;-64
2022/06/04 02:56:21;;;;;;;8.85;2.70;;;15.00;90.30;;;;;;4993377;28;20030;-64
2022/06/04 02:58:52;;;;;;;9.32;2.58;;;15.00;90.40;;;;;;4980794;28;20378;-64
2022/06/04 03:01:20;;;;;;;7.35;2.60;;;15.00;90.40;;;;;;4992818;28;20382;-64
2022/06/04 03:03:46;;;;;;;9.02;3.03;;;15.00;90.40;;;;;;4992268;28;20050;-64
2022/06/04 03:06:25;;;;;;;6.13;2.78;;;15.00;90.50;;;;;;4992519;28;20383;-64
2022/06/04 03:08:52;;;;;;;8.30;3.10;;;15.00;90.60;;;;;;4992383;28;20030;-64
2022/06/04 03:11:18;;;;;;;4.50;2.45;;;15.10;90.60;;;;;;4991991;28;20030;-64
2022/06/04 03:13:45;;;;;;;6.57;3.03;;;15.00;90.60;;;;;;4991720;28;20037;-64
2022/06/04 03:16:13;;;;;;;8.98;3.53;;;15.00;90.60;;;;;;4993151;28;20041;-64
2022/06/04 03:18:38;;;;;;;5.70;2.80;;;15.00;90.60;;;;;;4991597;28;20040;-64
2022/06/04 03:21:04;;;;;;;8.73;2.80;;;15.00;90.60;;;;;;4992636;28;20597;-64
2022/06/04 03:23:31;;;;;;;5.43;2.65;;;15.00;90.60;;;;;;4991227;28;20038;-64
2022/06/04 03:25:57;;;;;;;7.63;3.08;;;15.00;90.60;;;;;;4990728;28;20034;-64
2022/06/04 03:28:23;;;;;;;8.57;2.72;;;15.00;90.60;;;;;;4991668;28;20049;-64
2022/06/04 03:30:48;;;;;;;5.78;3.00;;;15.00;90.70;;;;;;4991052;28;20438;-64
2022/06/04 03:33:15;;;;;;;13.52;3.15;;;15.00;90.60;;;;;;4991176;28;20382;-64
2022/06/04 03:35:43;;;;;;;4.55;2.88;;;15.00;90.60;;;;;;4991257;28;20088;-64
2022/06/04 03:38:08;;;;;;;6.18;2.55;;;15.00;90.60;;;;;;4991496;28;20151;-64
2022/06/04 03:40:34;;;;;;;6.60;2.85;;;15.00;90.60;;;;;;4991039;28;20030;-64
2022/06/04 03:43:00;;;;;;;5.03;2.45;;;15.00;90.60;;;;;;4991251;28;20045;-64
2022/06/04 03:45:26;;;;;;;8.43;3.15;;;15.00;90.60;;;;;;4991120;28;20089;-64
2022/06/04 03:47:54;;;;;;;6.55;2.97;;;15.00;90.50;;;;;;4990739;28;20030;-64
2022/06/04 03:50:20;;;;;;;7.15;3.17;;;15.00;90.50;;;;;;4991661;28;20034;-64
2022/06/04 03:52:48;;;;;;;4.55;2.85;;;15.00;90.40;;;;;;4991127;28;20097;-64
2022/06/04 03:55:15;;;;;;;7.22;3.10;;;15.00;90.40;;;;;;4991012;28;20105;-64
2022/06/04 03:57:48;;;;;;;5.63;2.90;;;15.00;90.40;;;;;;4991082;28;20100;-64
2022/06/04 04:00:20;;;;;;;7.95;2.72;;;14.90;90.40;;;;;;4990807;28;20030;-64
2022/06/04 04:02:52;;;;;;;5.63;2.63;;;14.90;90.40;;;;;;4990074;28;20045;-64
2022/06/04 04:05:22;;;;;;;5.85;2.45;;;14.90;90.40;;;;;;4991108;28;20121;-64
2022/06/04 04:07:49;;;;;;;6.35;2.50;;;14.90;90.40;;;;;;4988133;28;20026;-64
2022/06/04 04:10:16;;;;;;;9.30;2.40;;;14.80;90.40;;;;;;4990807;28;20092;-64
2022/06/04 04:12:42;;;;;;;7.65;3.28;;;14.80;90.40;;;;;;4991524;28;20065;-64
2022/06/04 04:15:09;;;;;;;5.55;2.88;;;14.80;90.50;;;;;;4994128;28;20054;-64
2022/06/04 04:17:36;;;;;;;3.38;2.08;;;14.80;90.50;;;;;;4994951;28;20051;-64
2022/06/04 04:20:09;;;;;;;8.30;3.13;;;14.80;90.50;;;;;;4994834;28;20117;-64
2022/06/04 04:22:36;;;;;;;6.75;2.70;;;14.80;90.60;;;;;;4994425;28;20417;-64
2022/06/04 04:25:02;;;;;;;5.38;2.83;;;14.80;90.60;;;;;;4994991;28;20046;-63
2022/06/04 04:27:28;;;;;;;4.97;2.70;;;14.70;90.60;;;;;;4994482;28;20462;-65
2022/06/04 04:29:53;;;;;;;4.70;2.53;;;14.70;90.60;;;;;;4994208;28;20045;-65
2022/06/04 04:32:19;;;;;;;6.95;3.22;;;14.70;90.60;;;;;;4994842;28;20026;-65
2022/06/04 04:34:45;;;;;;;10.88;3.30;;;14.70;90.60;;;;;;4994779;28;20052;-65
2022/06/04 04:37:10;;;;;;;6.43;2.67;;;14.70;90.70;;;;;;4993920;28;20109;-65
2022/06/04 04:39:36;;;;;;;3.65;2.80;;;14.70;90.70;;;;;;4994351;28;20029;-65
2022/06/04 04:42:02;;;;;;;4.75;3.03;;;14.70;90.80;;;;;;4994328;28;20073;-64
2022/06/04 04:44:28;;;;;;;8.05;3.03;;;14.70;90.70;;;;;;4994124;28;20092;-65
2022/06/04 04:46:54;;;;;;;6.55;2.80;;;14.70;90.80;;;;;;4994341;28;20394;-64
2022/06/04 04:49:19;;;;;;;7.78;3.20;;;14.70;90.80;;;;;;4994459;28;20026;-64
2022/06/04 04:51:45;;;;;;;7.57;3.67;;;14.60;90.80;;;;;;4993515;28;20026;-64
2022/06/04 04:54:11;;;;;;;5.63;3.20;;;14.70;90.80;;;;;;4994567;28;20035;-65
2022/06/04 04:56:38;;;;;;;6.75;2.85;;;14.60;90.80;;;;;;4992739;28;20161;-65
2022/06/04 04:59:04;;;;;;;5.78;3.00;;;14.70;90.80;;;;;;4994351;28;20165;-65
2022/06/04 05:01:30;;;;;;;4.72;2.90;;;14.70;90.90;;;;;;4992605;28;20165;-65
2022/06/04 05:03:56;;;;;;;3.10;2.45;;;14.70;90.80;;;;;;4993894;28;20080;-65
2022/06/04 05:06:22;;;;;;;5.95;2.72;;;14.70;90.80;;;;;;4993564;28;20026;-65
2022/06/04 05:08:49;;;;;;;5.95;3.25;;;14.70;90.80;;;;;;4993806;28;20037;-65
2022/06/04 05:11:19;;;;;;;7.78;2.92;;;14.70;90.80;;;;;;4993229;28;20390;-65
2022/06/04 05:13:49;;;;;;;7.00;3.08;;;14.70;90.90;;;;;;4994271;28;20042;-65
2022/06/04 05:16:24;;;;;;;5.93;2.88;;;14.70;90.90;;;;;;4994184;28;20089;-65
2022/06/04 05:18:50;;;;;;;8.30;3.15;;;14.80;90.90;;;;;;4992835;28;20035;-65
2022/06/04 05:21:23;;;;;;;14.30;3.30;;;14.80;90.90;;;;;;4994729;28;20117;-67
2022/06/04 05:23:49;;;;;;;4.57;2.90;;;14.80;90.90;;;;;;4993130;28;20042;-66
2022/06/04 05:26:16;;;;;;;7.57;2.97;;;14.80;90.90;;;;;;4993440;28;20277;-65
2022/06/04 05:28:42;;;;;;;7.07;3.10;;;14.80;90.90;;;;;;4992980;28;20047;-65
2022/06/04 05:31:10;;;;;;;7.85;3.58;;;14.80;90.80;;;;;;4993674;28;20552;-65
2022/06/04 05:33:36;;;;;;;3.75;2.50;;;14.80;90.90;;;;;;4992720;28;20386;-65
2022/06/04 05:36:03;;;;;;;5.10;2.90;;;14.80;90.90;;;;;;4993675;28;20038;-66
2022/06/04 05:38:34;;;;;;;9.30;2.70;;;14.90;90.90;;;;;;4993767;28;20030;-68
2022/06/04 05:41:01;;;;;;;6.35;2.83;;;14.90;90.90;;;;;;4990565;28;20580;-65
2022/06/04 05:43:28;;;;;;;4.00;2.78;;;14.90;90.90;;;;;;4994089;28;20029;-65
2022/06/04 05:46:14;;;;;;;5.00;2.40;;;14.90;90.90;;;;;;4992480;28;20386;-65
2022/06/04 05:48:42;;;;;;;5.88;3.05;;;15.00;90.90;;;;;;4994705;28;20070;-65
2022/06/04 05:51:11;;;;;;;4.10;2.58;;;15.00;90.90;;;;;;4994102;28;20030;-65
2022/06/04 05:53:37;;;;;;;15.23;4.53;;;15.00;91.00;;;;;;4992993;28;20474;-65
2022/06/04 05:56:09;;;;;;;5.47;2.83;;;15.00;90.90;;;;;;4993404;28;20031;-65
2022/06/04 05:58:34;;;;;;;3.88;2.78;;;15.10;90.90;;;;;;4994192;28;20045;-68
2022/06/04 06:01:01;;;;;;;2.72;1.25;;;15.10;91.20;;;;;;4991923;28;20027;-67
2022/06/04 06:03:27;;;;;;;2.38;1.33;;;15.10;90.80;;;;;;4992468;28;20068;-69
2022/06/04 06:05:53;;;;;;;4.13;1.90;;;15.10;91.10;;;;;;4990536;28;20034;-67
2022/06/04 06:08:18;;;;;;;3.65;2.65;;;15.10;90.90;;;;;;4991965;28;20489;-67
2022/06/04 06:10:44;;;;;;;4.85;2.58;;;15.10;90.90;;;;;;4992817;28;20038;-69
2022/06/04 06:13:11;;;;;;;2.47;1.70;;;15.20;90.90;;;;;;4992656;28;20056;-68
2022/06/04 06:15:37;;;;;;;4.93;2.22;;;15.20;91.10;;;;;;4991223;28;20385;-67
2022/06/04 06:18:05;;;;;;;1.48;1.38;;;15.20;90.90;;;;;;4991236;28;20034;-67
2022/06/04 06:20:32;;;;;;;6.72;3.00;;;15.30;91.00;;;;;;4992831;28;20034;-67
2022/06/04 06:22:58;;;;;;;1.73;1.05;;;15.30;91.10;;;;;;4989579;28;20355;-69
2022/06/04 06:25:25;;;;;;;3.53;2.28;;;15.30;91.10;;;;;;4989845;28;20042;-69
2022/06/04 06:27:51;;;;;;;2.00;1.50;;;15.30;91.20;;;;;;4989528;28;20034;-69
2022/06/04 06:30:17;;;;;;;3.88;2.33;;;15.30;91.10;;;;;;4989493;28;20066;-69
2022/06/04 06:32:43;;;;;;;4.55;2.45;;;15.30;91.10;;;;;;4989943;28;20109;-67
2022/06/04 06:35:09;;;;;;;2.55;1.73;;;15.40;91.00;;;;;;4988930;28;20125;-67
2022/06/04 06:37:35;;;;;;;2.20;1.08;;;15.40;91.00;;;;;;4988191;28;20100;-67
2022/06/04 06:40:01;;;;;;;5.30;2.53;;;15.50;90.90;;;;;;4989538;28;20356;-71
2022/06/04 06:42:27;;;;;;;7.13;2.35;;;15.50;90.90;;;;;;4990824;28;20049;-67
2022/06/04 06:45:00;;;;;;;3.70;1.77;;;15.60;90.90;;;;;;5006348;28;20042;-66
2022/06/04 06:47:26;;;;;;;1.92;1.70;;;15.60;90.80;;;;;;4991498;28;20033;-67
2022/06/04 06:49:52;;;;;;;2.30;1.60;;;15.60;90.90;;;;;;4991671;28;20110;-72
2022/06/04 06:52:19;;;;;;;1.38;1.23;;;15.60;91.00;;;;;;4992036;28;20443;-66
2022/06/04 06:54:46;;;;;;;3.88;1.85;;;15.70;91.20;;;;;;4992345;28;20068;-66
2022/06/04 06:57:16;;;;;;;5.57;2.22;;;15.70;91.30;;;;;;4989144;28;20038;-67
2022/06/04 06:59:43;;;;;;;2.83;1.65;;;15.60;91.40;;;;;;4990847;28;20069;-67
2022/06/04 07:02:10;;;;;;;1.58;1.48;;;15.70;91.30;;;;;;4989363;28;20032;-67
2022/06/04 07:04:36;;;;;;;5.43;2.05;;;15.70;91.40;;;;;;4988020;28;20038;-67
2022/06/04 07:07:03;;;;;;;1.80;1.35;;;15.70;91.30;;;;;;4989726;28;20459;-67
2022/06/04 07:09:35;;;;;;;2.90;1.73;;;15.70;91.30;;;;;;4989826;28;20039;-71
2022/06/04 07:12:02;;;;;;;3.25;1.88;;;15.80;91.40;;;;;;4988637;28;20046;-66
2022/06/04 07:14:28;;;;;;;2.47;1.50;;;15.80;91.50;;;;;;4989484;28;20105;-67
2022/06/04 07:16:55;;;;;;;3.60;2.15;;;15.80;91.60;;;;;;4988435;28;20553;-68
2022/06/04 07:19:23;;;;;;;4.18;2.20;;;15.80;91.60;;;;;;4986204;28;20545;-66
2022/06/04 07:21:50;;;;;;;2.38;1.70;;;15.80;91.60;;;;;;4988533;28;20089;-66
2022/06/04 07:24:16;;;;;;;4.55;1.52;;;15.90;91.60;;;;;;4988359;28;20045;-67
2022/06/04 07:26:43;;;;;;;4.65;2.17;;;15.90;91.60;;;;;;4987701;28;20022;-67
2022/06/04 07:29:10;;;;;;;4.28;2.38;;;15.90;91.50;;;;;;4988398;28;20433;-64
2022/06/04 07:31:36;;;;;;;2.97;2.10;;;16.00;91.40;;;;;;4989434;28;20097;-64
2022/06/04 07:34:02;;;;;;;4.38;2.08;;;16.00;91.40;;;;;;4990410;28;20027;-66
2022/06/04 07:36:42;;;;;;;2.30;1.58;;;16.00;91.50;;;;;;4991222;28;20493;-66
2022/06/04 07:39:14;;;;;;;4.70;2.65;;;16.00;91.50;;;;;;4989130;28;20363;-65
2022/06/04 07:41:43;;;;;;;3.28;1.85;;;16.00;91.40;;;;;;4991845;28;20489;-65
2022/06/04 07:44:10;;;;;;;4.70;1.50;;;16.10;91.40;;;;;;4989467;28;20375;-65
2022/06/04 07:46:37;;;;;;;4.22;2.00;;;16.10;91.40;;;;;;4989933;28;20019;-65
2022/06/04 07:49:06;;;;;;;2.30;1.20;;;16.10;91.50;;;;;;4993705;28;20038;-65
2022/06/04 07:51:33;;;;;;;3.95;1.80;;;16.20;91.50;;;;;;4995773;28;20015;-63
2022/06/04 07:53:59;;;;;;;12.50;2.92;;;16.20;91.70;;;;;;4995127;28;20034;-66
2022/06/04 07:56:25;;;;;;;4.63;2.55;;;16.20;91.10;;;;;;4996445;28;20046;-66
2022/06/04 07:58:51;;;;;;;6.75;2.60;;;16.20;90.80;;;;;;4995673;28;20080;-66
2022/06/04 08:01:20;;;;;;;6.75;2.50;;;16.20;90.70;;;;;;4995386;28;20106;-66
2022/06/04 08:03:47;;;;;;;2.55;2.00;;;16.30;90.60;;;;;;4995415;28;20504;-66
2022/06/04 08:06:17;;;;;;;3.58;2.33;;;16.30;90.40;;;;;;4996495;28;20480;-66
2022/06/04 08:08:47;;;;;;;3.95;2.40;;;16.40;90.40;;;;;;4993859;28;20077;-66
2022/06/04 08:11:31;;;;;;;7.10;3.20;;;16.40;90.30;;;;;;4995457;28;20065;-66
2022/06/04 08:14:06;;;;;;;4.22;2.50;;;16.50;90.20;;;;;;4984344;28;20100;-66
2022/06/04 08:16:32;;;;;;;4.00;2.50;;;16.50;90.20;;;;;;4995814;28;20105;-66
2022/06/04 08:18:58;;;;;;;6.15;2.50;;;16.50;90.10;;;;;;4996042;28;20073;-66
2022/06/04 08:21:24;;;;;;;4.60;2.50;;;16.60;90.00;;;;;;4994611;28;20470;-66
2022/06/04 08:23:50;;;;;;;4.80;2.70;;;16.60;90.00;;;;;;4995879;28;20045;-66
2022/06/04 08:26:16;;;;;;;3.28;2.30;;;16.60;90.00;;;;;;4994982;28;20026;-66
2022/06/04 08:28:42;;;;;;;6.38;2.13;;;16.60;89.90;;;;;;4994049;28;20379;-67
2022/06/04 08:31:14;;;;;;;4.78;2.33;;;16.70;90.00;;;;;;4995945;28;20019;-66
2022/06/04 08:33:41;;;;;;;3.92;2.22;;;16.70;90.00;;;;;;4995352;28;20542;-66
2022/06/04 08:36:09;;;;;;;7.03;2.38;;;16.70;89.60;;;;;;4994890;28;20486;-66
2022/06/04 08:38:35;;;;;;;4.75;2.60;;;16.80;89.80;;;;;;4995671;28;20026;-66
2022/06/04 08:41:07;;;;;;;6.68;3.38;;;16.80;89.80;;;;;;4994786;28;20041;-66
2022/06/04 08:43:57;;;;;;;3.75;2.13;;;16.80;89.40;;;;;;4994788;28;20048;-66
2022/06/04 08:46:25;;;;;;;4.22;2.65;;;16.90;89.30;;;;;;4982927;28;20030;-66
2022/06/04 08:48:51;;;;;;;5.22;2.92;;;16.90;89.40;;;;;;4994497;28;20139;-66
2022/06/04 08:51:24;;;;;;;4.50;2.30;;;16.90;89.20;;;;;;4995339;28;20113;-66
2022/06/04 08:53:53;;;;;;;6.38;2.63;;;16.90;89.30;;;;;;4994625;28;20041;-66
2022/06/04 08:59:32;;;;;;;6.60;2.10;;;17.10;88.80;;;;;;4994267;28;20037;-66
2022/06/04 09:02:04;;;;;;;3.80;2.30;;;17.10;89.10;;;;;;4994282;28;20038;-66
2022/06/04 09:04:44;;;;;;;4.80;2.40;;;17.10;89.00;;;;;;4994080;28;20047;-66
2022/06/04 09:07:23;;;;;;;7.45;2.28;;;17.10;88.50;;;;;;4994127;28;20034;-66
2022/06/04 09:10:01;;;;;;;5.78;2.72;;;17.20;88.00;;;;;;4993850;28;20482;-67
2022/06/04 09:12:36;;;;;;;8.95;3.08;;;17.20;88.00;;;;;;4994638;28;20367;-66
2022/06/04 09:15:14;;;;;;;5.65;2.58;;;17.20;88.80;;;;;;4994887;28;20031;-66
2022/06/04 09:17:43;;;;;;;5.90;2.30;;;17.20;88.70;;;;;;4994585;28;20030;-66
2022/06/04 09:20:20;;;;;;;4.43;2.80;;;17.30;88.80;;;;;;4993826;28;20027;-66
2022/06/04 09:22:47;;;;;;;3.08;2.30;;;17.30;88.90;;;;;;4993668;28;20035;-66
2022/06/04 09:25:21;;;;;;;7.43;2.65;;;17.30;88.50;;;;;;4994038;28;20041;-66
2022/06/04 09:28:03;;;;;;;5.70;2.47;;;17.40;88.90;;;;;;4994295;28;20060;-66
2022/06/04 09:30:36;;;;;;;5.47;2.63;;;17.30;89.30;;;;;;4993853;28;20039;-66
2022/06/04 09:34:00;;;;;;;6.90;2.40;;;17.40;88.70;;;;;;4993736;28;20030;-66
2022/06/04 09:36:30;;;;;;;5.07;2.53;;;17.40;89.00;;;;;;4926088;29;20079;-67
2022/06/04 09:38:59;;;;;;;4.22;2.30;;;17.50;89.40;;;;;;4930188;29;20287;-66
2022/06/04 09:41:27;;;;;;;7.28;3.10;;;17.50;89.50;;;;;;4965130;28;20122;-66
2022/06/04 09:44:19;;;;;;;3.88;2.60;;;17.50;89.90;;;;;;4994902;28;20703;-66
2022/06/04 09:46:47;;;;;;;5.13;2.90;;;17.60;89.80;;;;;;4983024;28;20045;-66
2022/06/04 09:49:49;;;;;;;4.93;2.72;;;17.60;89.20;;;;;;4993793;28;20160;-66
2022/06/04 09:52:33;;;;;;;7.47;2.67;;;17.60;89.40;;;;;;4966967;28;20043;-67
2022/06/04 09:55:13;;;;;;;5.60;3.20;;;17.60;89.50;;;;;;4992879;28;20026;-66
2022/06/04 09:57:39;;;;;;;4.97;2.63;;;17.60;89.10;;;;;;4993412;28;20515;-66
2022/06/04 10:00:33;;;;;;;4.45;2.70;;;17.70;89.00;;;;;;4993511;28;20031;-67
2022/06/04 10:03:13;;;;;;;4.40;2.47;;;17.70;89.10;;;;;;4994456;28;20030;-67
2022/06/04 10:05:48;;;;;;;3.63;2.13;;;17.70;89.30;;;;;;4993668;28;20106;-67
2022/06/04 10:08:15;;;;;;;9.40;3.05;;;17.70;89.40;;;;;;4992950;28;20076;-66
2022/06/04 10:10:45;;;;;;;3.22;2.38;;;17.70;89.10;;;;;;4992703;28;20058;-67
2022/06/04 10:16:21;;;;;;;7.22;2.60;;;17.70;89.10;;;;;;4985949;28;20078;-67
2022/06/04 10:18:56;;;;;;;3.80;2.30;;;17.80;88.80;;;;;;4992646;28;20092;-66
2022/06/04 10:21:42;;;;;;;5.22;2.30;;;17.80;88.20;;;;;;4992092;28;20116;-66
2022/06/04 10:24:20;;;;;;;6.90;2.50;;;17.80;88.50;;;;;;4993958;28;20129;-66
2022/06/04 10:26:57;;;;;;;5.18;2.60;;;17.80;88.00;;;;;;4992890;28;20433;-69
2022/06/04 10:30:01;;;;;;;4.65;2.50;;;17.80;88.20;;;;;;4992858;28;20038;-67
2022/06/04 10:32:48;;;;;;;7.20;2.85;;;17.90;88.60;;;;;;4993077;28;20030;-66
2022/06/04 10:35:39;;;;;;;5.40;2.58;;;17.90;88.30;;;;;;4991811;28;20113;-67
2022/06/04 10:38:29;;;;;;;4.75;2.85;;;17.90;88.80;;;;;;4992866;28;20030;-66
2022/06/04 10:41:31;;;;;;;4.43;2.58;;;17.90;88.80;;;;;;4988448;28;20045;-67
2022/06/04 10:44:29;;;;;;;5.47;2.70;;;17.90;88.50;;;;;;4992329;28;20502;-66
2022/06/04 10:47:16;;;;;;;6.32;2.35;;;18.00;88.60;;;;;;4993468;28;20038;-66
2022/06/04 10:50:09;;;;;;;4.93;2.47;;;18.00;88.70;;;;;;4981249;28;20038;-66
2022/06/04 10:52:46;;;;;;;7.65;2.72;;;18.00;88.70;;;;;;4991410;28;20045;-66
2022/06/04 10:55:35;;;;;;;4.88;2.95;;;18.00;88.90;;;;;;4993049;28;20061;-66
2022/06/04 10:58:36;;;;;;;7.00;2.78;;;18.10;88.60;;;;;;4983085;28;20042;-66
2022/06/04 11:01:02;;;;;;;3.88;2.50;;;18.10;88.80;;;;;;4981653;28;20034;-66
2022/06/04 11:03:55;;;;;;;5.65;2.70;;;18.10;88.50;;;;;;4991836;28;20029;-66
2022/06/04 11:06:32;;;;;;;5.25;2.65;;;18.10;88.70;;;;;;4992837;28;20456;-66
2022/06/04 11:09:08;;;;;;;3.08;2.15;;;18.10;88.20;;;;;;4992042;28;20038;-65
2022/06/04 11:11:37;;;;;;;6.35;2.97;;;18.10;88.60;;;;;;4990517;28;20042;-65
2022/06/04 11:14:22;;;;;;;3.42;2.15;;;18.20;88.90;;;;;;4992249;28;20038;-65
2022/06/04 11:17:15;;;;;;;5.35;3.08;;;18.20;88.60;;;;;;4989798;28;20048;-65
2022/06/04 11:19:46;;;;;;;7.65;2.70;;;18.20;88.60;;;;;;4988373;28;20037;-65
2022/06/04 11:22:36;;;;;;;5.70;2.63;;;18.20;88.50;;;;;;4990241;28;20050;-65
2022/06/04 11:25:27;;;;;;;4.70;2.97;;;18.30;88.00;;;;;;4984774;28;21386;-66
2022/06/04 11:28:03;;;;;;;2.80;1.40;;;18.40;88.30;;;;;;4987539;28;20032;-65
2022/06/04 11:30:56;;;;;;;2.65;1.40;;;18.40;89.20;;;;;;4990159;28;20037;-65
2022/06/04 11:33:42;;;;;;;1.55;1.35;;;18.40;89.50;;;;;;4990866;28;20036;-65
2022/06/04 11:36:18;;;;;;;3.50;1.88;;;18.40;89.70;;;;;;4991271;28;20378;-65
2022/06/04 11:39:02;;;;;;;4.25;2.13;;;18.40;89.60;;;;;;4989037;28;20398;-65
2022/06/04 11:41:52;;;;;;;3.28;1.58;;;18.40;89.50;;;;;;4989236;28;20478;-65
2022/06/04 11:44:31;;;;;;;4.38;1.92;;;18.40;89.70;;;;;;4988455;28;20046;-65
2022/06/04 11:47:26;;;;;;;4.57;2.10;;;18.50;89.90;;;;;;4990341;28;20381;-65
2022/06/04 11:50:21;;;;;;;1.50;1.23;;;18.50;89.90;;;;;;4987839;28;20121;-65
2022/06/04 11:53:02;;;;;;;5.25;1.80;;;18.50;90.00;;;;;;4988925;28;20019;-65
2022/06/04 11:55:43;;;;;;;5.32;2.20;;;18.50;90.00;;;;;;4990365;28;20034;-65
2022/06/04 11:58:27;;;;;;;2.13;1.52;;;18.50;90.00;;;;;;4990345;28;20022;-65
2022/06/04 12:01:01;;;;;;;4.88;2.20;;;18.50;90.00;;;;;;4991166;28;20042;-65
2022/06/04 12:03:42;;;;;;;4.18;2.58;;;18.50;89.90;;;;;;4991731;28;20041;-66
2022/06/04 12:06:16;;;;;;;3.95;1.95;;;18.60;90.00;;;;;;4991104;28;20040;-65
2022/06/04 12:08:51;;;;;;;7.22;1.98;;;18.60;90.10;;;;;;4990899;28;20475;-65
2022/06/04 12:11:40;;;;;;;3.65;1.88;;;18.50;89.90;;;;;;4989399;28;20054;-65
2022/06/04 12:14:43;;;;;;;3.78;2.00;;;18.60;90.00;;;;;;4989432;28;20034;-65
2022/06/04 12:17:28;;;;;;;2.33;1.40;;;18.60;90.00;;;;;;4990217;28;20038;-66
2022/06/04 12:26:21;;;;;;;2.15;1.63;;;18.50;89.90;;;;;;4989692;28;20074;-64
2022/06/04 12:28:47;;;;;;;6.65;1.45;;;18.50;90.00;;;;;;4990370;28;20038;-64
2022/06/04 12:31:24;;;;;;;4.82;1.85;;;18.50;90.10;;;;;;4992317;28;20113;-64
2022/06/04 12:33:51;;;;;;;4.82;2.45;;;18.50;90.00;;;;;;4991434;28;20186;-64
2022/06/04 12:36:32;;;;;;;3.67;1.70;;;18.50;89.70;;;;;;4995593;28;20446;-64
2022/06/04 12:39:40;;;;;;;0.65;0.65;;;18.50;90.00;;;;;;4994663;28;20038;-64
2022/06/04 12:42:19;;;;;;;4.00;1.73;;;18.60;89.90;;;;;;4967057;28;20498;-64
2022/06/04 12:45:00;;;;;;;2.85;1.20;;;18.60;89.70;;;;;;4995356;28;20449;-64
2022/06/04 12:47:29;;;;;;;2.45;1.55;;;18.50;89.90;;;;;;4984509;28;20029;-64
2022/06/04 12:50:16;;;;;;;3.92;2.03;;;18.60;89.70;;;;;;4992287;28;20478;-65
2022/06/04 12:53:07;;;;;;;3.38;1.77;;;18.60;89.80;;;;;;4993517;28;20610;-65
2022/06/04 12:55:44;;;;;;;1.73;1.25;;;18.60;89.70;;;;;;4989276;28;20031;-65
2022/06/04 12:58:34;;;;;;;3.90;1.67;;;18.60;89.70;;;;;;4995280;28;20030;-64
2022/06/04 13:01:20;;;;;;;3.17;1.50;;;18.60;89.60;;;;;;4995575;28;20045;-64
2022/06/04 13:04:02;;;;;;;9.93;2.05;;;18.70;89.80;;;;;;4989889;28;20557;-64
2022/06/04 13:06:34;;;;;;;4.22;1.83;;;18.70;89.60;;;;;;4995048;28;20041;-64
2022/06/04 13:09:32;;;;;;;4.97;2.05;;;18.70;89.70;;;;;;4994205;28;20030;-64
2022/06/04 13:12:18;;;;;;;3.47;1.98;;;18.70;89.30;;;;;;4991651;28;20058;-64
2022/06/04 13:15:05;;;;;;;6.03;2.00;;;18.80;89.20;;;;;;4994092;28;20391;-65
2022/06/04 13:17:47;;;;;;;3.58;1.85;;;18.90;89.30;;;;;;4993500;28;20087;-65
2022/06/04 13:20:25;;;;;;;7.13;2.88;;;18.90;89.40;;;;;;4994488;28;20049;-64
2022/06/04 13:23:07;;;;;;;6.50;2.15;;;18.90;89.00;;;;;;4994207;28;20029;-65
2022/06/04 13:25:41;;;;;;;2.22;1.30;;;18.90;88.90;;;;;;4993847;28;20129;-65
2022/06/04 13:28:32;;;;;;;8.18;2.72;;;19.00;89.00;;;;;;4994672;28;20110;-66
2022/06/04 13:31:00;;;;;;;4.30;2.13;;;19.00;88.40;;;;;;4992191;28;20034;-65
2022/06/04 13:33:26;;;;;;;4.45;1.48;;;19.00;88.50;;;;;;4994664;28;20034;-65
2022/06/04 13:35:54;;;;;;;4.35;1.80;;;19.10;88.50;;;;;;4993950;28;20391;-65
2022/06/04 13:38:39;;;;;;;7.15;2.20;;;19.10;88.20;;;;;;4993252;28;20058;-66
2022/06/04 13:44:35;;;;;;;5.25;2.20;;;19.10;87.80;;;;;;4993112;28;20129;-65